WAT251 KMSP-KPHX
Flight info
| Callsign | WAT251 |
|---|---|
| Flight time | N/A |
| Altitude | 36000 |
| Route | SCHEP1 RXANN DCT TEYOU DCT LLUKY DCT PUB DCT ALS J102 GUP EAGUL6 |
| Aircraft | B739/M-SDE2E3FGHIRWXY/LB1 |
Departure
| Time | N/A |
|---|---|
| Airport | Minneapolis–Saint Paul International Airport / Wold–Chamberlain Field (KMSP) |
Arrival
| Time | 2026-05-06 02:32 |
|---|---|
| Airport | Phoenix Sky Harbor International Airport (KPHX) |
| Time | Latitude | Longitude | Altitude | Speed | Heading |
|---|---|---|---|---|---|
| 2026-05-06 01:50 | 34.77493 | -109.77135 | 36002 ft | 361 kts | 228° |
| 2026-05-06 01:50 | 34.75747 | -109.79360 | 36006 ft | 361 kts | 228° |
| 2026-05-06 01:51 | 34.72350 | -109.83788 | 36011 ft | 359 kts | 232° |
| 2026-05-06 01:51 | 34.69620 | -109.88818 | 35998 ft | 362 kts | 241° |
| 2026-05-06 01:52 | 34.67469 | -109.94354 | 36006 ft | 361 kts | 244° |
| 2026-05-06 01:52 | 34.65425 | -109.99926 | 35998 ft | 363 kts | 244° |
| 2026-05-06 01:53 | 34.63385 | -110.05460 | 36004 ft | 363 kts | 244° |
| 2026-05-06 01:53 | 34.61299 | -110.11051 | 35998 ft | 364 kts | 244° |
| 2026-05-06 01:54 | 34.59215 | -110.16640 | 35998 ft | 364 kts | 243° |
| 2026-05-06 01:54 | 34.57122 | -110.22227 | 36000 ft | 364 kts | 243° |
| 2026-05-06 01:55 | 34.55033 | -110.27808 | 36003 ft | 366 kts | 244° |
| 2026-05-06 01:55 | 34.52940 | -110.33362 | 36007 ft | 365 kts | 244° |
| 2026-05-06 01:56 | 34.50824 | -110.38965 | 36002 ft | 366 kts | 243° |
| 2026-05-06 01:56 | 34.48690 | -110.44611 | 35969 ft | 368 kts | 244° |
| 2026-05-06 01:57 | 34.47651 | -110.47364 | 35809 ft | 358 kts | 243° |
| 2026-05-06 01:57 | 34.46617 | -110.50097 | 35290 ft | 355 kts | 244° |
| 2026-05-06 01:57 | 34.45594 | -110.52786 | 34620 ft | 356 kts | 243° |
| 2026-05-06 01:57 | 34.44562 | -110.55501 | 33878 ft | 357 kts | 243° |
| 2026-05-06 01:58 | 34.43526 | -110.58233 | 33276 ft | 355 kts | 243° |
| 2026-05-06 01:58 | 34.42513 | -110.60908 | 32818 ft | 349 kts | 244° |
| 2026-05-06 01:58 | 34.41501 | -110.63582 | 32382 ft | 343 kts | 244° |
| 2026-05-06 01:58 | 34.40524 | -110.66158 | 31995 ft | 337 kts | 242° |
| 2026-05-06 01:59 | 34.39558 | -110.68684 | 31563 ft | 332 kts | 243° |
| 2026-05-06 01:59 | 34.38591 | -110.71221 | 30881 ft | 335 kts | 242° |
| 2026-05-06 01:59 | 34.37619 | -110.73786 | 30230 ft | 335 kts | 244° |
| 2026-05-06 01:59 | 34.36646 | -110.76307 | 29696 ft | 333 kts | 242° |
| 2026-05-06 02:00 | 34.35568 | -110.78780 | 29233 ft | 328 kts | 239° |
| 2026-05-06 02:00 | 34.34268 | -110.81044 | 28745 ft | 325 kts | 232° |
| 2026-05-06 02:00 | 34.32797 | -110.83083 | 28209 ft | 325 kts | 229° |
| 2026-05-06 02:00 | 34.31229 | -110.85069 | 27643 ft | 325 kts | 228° |
| 2026-05-06 02:01 | 34.29657 | -110.87040 | 26990 ft | 327 kts | 229° |
| 2026-05-06 02:01 | 34.28093 | -110.89028 | 26337 ft | 328 kts | 229° |
| 2026-05-06 02:01 | 34.26518 | -110.91046 | 25486 ft | 331 kts | 229° |
| 2026-05-06 02:01 | 34.24932 | -110.93087 | 24495 ft | 337 kts | 230° |
| 2026-05-06 02:02 | 34.23338 | -110.95144 | 24156 ft | 327 kts | 230° |
| 2026-05-06 02:02 | 34.21773 | -110.97161 | 23766 ft | 322 kts | 230° |
| 2026-05-06 02:02 | 34.20188 | -110.99206 | 23105 ft | 325 kts | 230° |
| 2026-05-06 02:02 | 34.18639 | -111.01205 | 22383 ft | 329 kts | 229° |
| 2026-05-06 02:03 | 34.17080 | -111.03211 | 21785 ft | 330 kts | 229° |
| 2026-05-06 02:03 | 34.15509 | -111.05235 | 21243 ft | 329 kts | 229° |
| 2026-05-06 02:03 | 34.13958 | -111.07230 | 20691 ft | 329 kts | 229° |
| 2026-05-06 02:03 | 34.12395 | -111.09242 | 20312 ft | 323 kts | 229° |
| 2026-05-06 02:04 | 34.10896 | -111.11163 | 20104 ft | 313 kts | 228° |
| 2026-05-06 02:04 | 34.09392 | -111.13092 | 19608 ft | 313 kts | 228° |
| 2026-05-06 02:04 | 34.07896 | -111.15016 | 18989 ft | 317 kts | 228° |
| 2026-05-06 02:04 | 34.06382 | -111.16965 | 18429 ft | 319 kts | 228° |
| 2026-05-06 02:05 | 34.04831 | -111.18962 | 17826 ft | 321 kts | 228° |
| 2026-05-06 02:05 | 34.03257 | -111.20984 | 17334 ft | 320 kts | 228° |
| 2026-05-06 02:05 | 34.01718 | -111.22956 | 16876 ft | 318 kts | 227° |
| 2026-05-06 02:05 | 34.00180 | -111.24926 | 16449 ft | 315 kts | 228° |
| 2026-05-06 02:06 | 33.98656 | -111.26876 | 16088 ft | 309 kts | 227° |
| 2026-05-06 02:06 | 33.97167 | -111.28754 | 15664 ft | 308 kts | 226° |
| 2026-05-06 02:06 | 33.95587 | -111.30511 | 15237 ft | 306 kts | 221° |
| 2026-05-06 02:06 | 33.93906 | -111.32196 | 14814 ft | 304 kts | 223° |
| 2026-05-06 02:07 | 33.92429 | -111.33968 | 14383 ft | 302 kts | 229° |
| 2026-05-06 02:07 | 33.91110 | -111.35950 | 13967 ft | 300 kts | 234° |
| 2026-05-06 02:07 | 33.89898 | -111.37973 | 13565 ft | 298 kts | 233° |
| 2026-05-06 02:07 | 33.88564 | -111.39899 | 13250 ft | 293 kts | 226° |
| 2026-05-06 02:08 | 33.87047 | -111.41469 | 13063 ft | 285 kts | 218° |
| 2026-05-06 02:08 | 33.85421 | -111.42845 | 12626 ft | 286 kts | 216° |
| 2026-05-06 02:08 | 33.83769 | -111.44186 | 12230 ft | 285 kts | 216° |
| 2026-05-06 02:08 | 33.82142 | -111.45535 | 11845 ft | 284 kts | 217° |
| 2026-05-06 02:09 | 33.80530 | -111.46904 | 11462 ft | 282 kts | 217° |
| 2026-05-06 02:09 | 33.78920 | -111.48286 | 11077 ft | 281 kts | 218° |
| 2026-05-06 02:09 | 33.77336 | -111.49651 | 10701 ft | 279 kts | 218° |
| 2026-05-06 02:09 | 33.75721 | -111.51043 | 10317 ft | 278 kts | 218° |
| 2026-05-06 02:10 | 33.74159 | -111.52387 | 10042 ft | 273 kts | 218° |
| 2026-05-06 02:10 | 33.72628 | -111.53702 | 9818 ft | 267 kts | 218° |
| 2026-05-06 02:10 | 33.71093 | -111.55022 | 9421 ft | 268 kts | 218° |
| 2026-05-06 02:10 | 33.69573 | -111.56327 | 9068 ft | 267 kts | 218° |
| 2026-05-06 02:11 | 33.68064 | -111.57621 | 8866 ft | 259 kts | 218° |
| 2026-05-06 02:11 | 33.66614 | -111.58859 | 8792 ft | 247 kts | 218° |
| 2026-05-06 02:11 | 33.65214 | -111.60054 | 8705 ft | 236 kts | 218° |
| 2026-05-06 02:11 | 33.63886 | -111.61186 | 8540 ft | 230 kts | 218° |
| 2026-05-06 02:12 | 33.62577 | -111.62289 | 8224 ft | 231 kts | 218° |
| 2026-05-06 02:12 | 33.61261 | -111.63384 | 7928 ft | 231 kts | 217° |
| 2026-05-06 02:12 | 33.59941 | -111.64481 | 7639 ft | 230 kts | 217° |
| 2026-05-06 02:12 | 33.58641 | -111.65568 | 7361 ft | 229 kts | 217° |
| 2026-05-06 02:13 | 33.57330 | -111.66665 | 7078 ft | 229 kts | 217° |
| 2026-05-06 02:13 | 33.55767 | -111.67971 | 6738 ft | 229 kts | 217° |
| 2026-05-06 02:13 | 33.54499 | -111.69038 | 6464 ft | 228 kts | 218° |
| 2026-05-06 02:13 | 33.53206 | -111.70134 | 6178 ft | 228 kts | 218° |
| 2026-05-06 02:14 | 33.51906 | -111.71236 | 5896 ft | 228 kts | 218° |
| 2026-05-06 02:14 | 33.50610 | -111.72330 | 5607 ft | 226 kts | 217° |
| 2026-05-06 02:14 | 33.49336 | -111.73403 | 5336 ft | 224 kts | 217° |
| 2026-05-06 02:14 | 33.48034 | -111.74500 | 5058 ft | 221 kts | 217° |
| 2026-05-06 02:15 | 33.46835 | -111.75610 | 4793 ft | 217 kts | 226° |
| 2026-05-06 02:15 | 33.45964 | -111.77045 | 4621 ft | 208 kts | 242° |
| 2026-05-06 02:15 | 33.45312 | -111.78556 | 4457 ft | 203 kts | 243° |
| 2026-05-06 02:15 | 33.44649 | -111.80039 | 4250 ft | 215 kts | 242° |
| 2026-05-06 02:16 | 33.44029 | -111.81664 | 4038 ft | 215 kts | 255° |
| 2026-05-06 02:16 | 33.43994 | -111.83415 | 4018 ft | 212 kts | 280° |
| 2026-05-06 02:16 | 33.44220 | -111.85157 | 4016 ft | 215 kts | 271° |
| 2026-05-06 02:16 | 33.44220 | -111.86952 | 4012 ft | 214 kts | 274° |
| 2026-05-06 02:17 | 33.44717 | -111.88591 | 4009 ft | 216 kts | 305° |
| 2026-05-06 02:17 | 33.45950 | -111.89687 | 4000 ft | 227 kts | 338° |
| 2026-05-06 02:17 | 33.47519 | -111.89828 | 3997 ft | 234 kts | 10° |
| 2026-05-06 02:17 | 33.48949 | -111.88963 | 4003 ft | 240 kts | 42° |
| 2026-05-06 02:18 | 33.49845 | -111.87295 | 4006 ft | 240 kts | 75° |
| 2026-05-06 02:18 | 33.50048 | -111.85333 | 4006 ft | 240 kts | 89° |
| 2026-05-06 02:18 | 33.50070 | -111.83324 | 4006 ft | 239 kts | 90° |
| 2026-05-06 02:18 | 33.50081 | -111.81329 | 4006 ft | 240 kts | 90° |
| 2026-05-06 02:19 | 33.50093 | -111.79339 | 4006 ft | 242 kts | 90° |
| 2026-05-06 02:19 | 33.50104 | -111.77332 | 4007 ft | 241 kts | 90° |
| 2026-05-06 02:19 | 33.50109 | -111.75319 | 4008 ft | 241 kts | 90° |
| 2026-05-06 02:19 | 33.50104 | -111.73301 | 4014 ft | 243 kts | 93° |
| 2026-05-06 02:20 | 33.48559 | -111.70001 | 4012 ft | 231 kts | 155° |
| 2026-05-06 02:20 | 33.47023 | -111.69562 | 4015 ft | 225 kts | 187° |
| 2026-05-06 02:20 | 33.45590 | -111.70167 | 4016 ft | 218 kts | 220° |
| 2026-05-06 02:21 | 33.44617 | -111.71516 | 4017 ft | 215 kts | 240° |
| 2026-05-06 02:21 | 33.44098 | -111.73188 | 4009 ft | 214 kts | 262° |
| 2026-05-06 02:21 | 33.44025 | -111.74963 | 4012 ft | 215 kts | 269° |
| 2026-05-06 02:21 | 33.44030 | -111.76763 | 4005 ft | 210 kts | 269° |
| 2026-05-06 02:22 | 33.44033 | -111.78432 | 4010 ft | 193 kts | 269° |
| 2026-05-06 02:22 | 33.44036 | -111.79978 | 4007 ft | 180 kts | 269° |
| 2026-05-06 02:22 | 33.44040 | -111.81466 | 3964 ft | 181 kts | 269° |
| 2026-05-06 02:22 | 33.44045 | -111.82984 | 3745 ft | 183 kts | 269° |
| 2026-05-06 02:23 | 33.44053 | -111.84489 | 3506 ft | 180 kts | 269° |
| 2026-05-06 02:23 | 33.44055 | -111.85987 | 3264 ft | 179 kts | 269° |
| 2026-05-06 02:23 | 33.44058 | -111.87421 | 3043 ft | 167 kts | 269° |
| 2026-05-06 02:23 | 33.44064 | -111.88770 | 2804 ft | 155 kts | 269° |
| 2026-05-06 02:24 | 33.44066 | -111.90016 | 2652 ft | 153 kts | 269° |
| 2026-05-06 02:24 | 33.44065 | -111.91304 | 2420 ft | 151 kts | 268° |
| 2026-05-06 02:24 | 33.44069 | -111.92558 | 2223 ft | 153 kts | 268° |
| 2026-05-06 02:24 | 33.44073 | -111.93839 | 2529 ft | 150 kts | 268° |
| 2026-05-06 02:25 | 33.44065 | -111.95064 | 2437 ft | 152 kts | 269° |
| 2026-05-06 02:25 | 33.44099 | -111.96320 | 2315 ft | 144 kts | 274° |
| 2026-05-06 02:25 | 33.44219 | -111.97508 | 2610 ft | 145 kts | 274° |
| 2026-05-06 02:25 | 33.44321 | -111.98760 | 3008 ft | 167 kts | 274° |
| 2026-05-06 02:26 | 33.44446 | -112.00166 | 3644 ft | 170 kts | 274° |
| 2026-05-06 02:26 | 33.44582 | -112.01657 | 3939 ft | 190 kts | 274° |
| 2026-05-06 02:26 | 33.44696 | -112.03303 | 3942 ft | 201 kts | 273° |
| 2026-05-06 02:26 | 33.44992 | -112.04903 | 4187 ft | 205 kts | 290° |
| 2026-05-06 02:27 | 33.45872 | -112.06342 | 3898 ft | 225 kts | 321° |
| 2026-05-06 02:27 | 33.47315 | -112.06874 | 4004 ft | 218 kts | 358° |
| 2026-05-06 02:27 | 33.48704 | -112.06400 | 4018 ft | 224 kts | 30° |
| 2026-05-06 02:27 | 33.49043 | -112.06107 | 4020 ft | 220 kts | 39° |
| 2026-05-06 02:28 | 33.49834 | -112.04635 | 4011 ft | 210 kts | 76° |
| 2026-05-06 02:28 | 33.49995 | -112.02896 | 4015 ft | 209 kts | 88° |
| 2026-05-06 02:28 | 33.50064 | -112.01160 | 4019 ft | 210 kts | 88° |
| 2026-05-06 02:28 | 33.50136 | -111.99419 | 4071 ft | 210 kts | 89° |
| 2026-05-06 02:29 | 33.50171 | -111.97640 | 3939 ft | 214 kts | 91° |
| 2026-05-06 02:29 | 33.50064 | -111.95911 | 3699 ft | 207 kts | 107° |
| 2026-05-06 02:29 | 33.49415 | -111.94428 | 3358 ft | 194 kts | 137° |
| 2026-05-06 02:29 | 33.48371 | -111.93552 | 3150 ft | 173 kts | 160° |
| 2026-05-06 02:30 | 33.47288 | -111.93151 | 2959 ft | 161 kts | 177° |
| 2026-05-06 02:30 | 33.46202 | -111.93095 | 2644 ft | 156 kts | 184° |
| 2026-05-06 02:30 | 33.45130 | -111.93166 | 2321 ft | 147 kts | 201° |
| 2026-05-06 02:30 | 33.44370 | -111.93922 | 2045 ft | 144 kts | 243° |
| 2026-05-06 02:31 | 33.44069 | -111.95060 | 1833 ft | 147 kts | 262° |
| 2026-05-06 02:31 | 33.44061 | -111.96291 | 1693 ft | 149 kts | 269° |
| 2026-05-06 02:31 | 33.44080 | -111.97557 | 1505 ft | 153 kts | 268° |
| 2026-05-06 02:31 | 33.44082 | -111.98838 | 1277 ft | 155 kts | 268° |
| 2026-05-06 02:32 | 33.44082 | -112.00072 | 1141 ft | 140 kts | 268° |
| 2026-05-06 02:32 | 33.44085 | -112.01032 | 1131 ft | 90 kts | 269° |
| 2026-05-06 02:32 | 33.44076 | -112.01594 | 1127 ft | 41 kts | 263° |
| 2026-05-06 02:32 | 33.44000 | -112.01742 | 1126 ft | 5 kts | 220° |
| 2026-05-06 02:33 | 33.43999 | -112.01743 | 1126 ft | 0 kts | 220° |
| 2026-05-06 02:33 | 33.43997 | -112.01745 | 1126 ft | 2 kts | 218° |
| 2026-05-06 02:34 | 33.43941 | -112.01773 | 1125 ft | 11 kts | 172° |
| 2026-05-06 02:34 | 33.43902 | -112.01688 | 1127 ft | 13 kts | 92° |
| 2026-05-06 02:34 | 33.43900 | -112.01585 | 1127 ft | 11 kts | 89° |
| 2026-05-06 02:34 | 33.43901 | -112.01491 | 1128 ft | 11 kts | 90° |
| 2026-05-06 02:35 | 33.43901 | -112.01405 | 1129 ft | 11 kts | 90° |
| 2026-05-06 02:35 | 33.43901 | -112.01275 | 1130 ft | 15 kts | 90° |
| 2026-05-06 02:35 | 33.43900 | -112.01145 | 1130 ft | 15 kts | 91° |
| 2026-05-06 02:35 | 33.43901 | -112.01021 | 1130 ft | 14 kts | 88° |
| 2026-05-06 02:36 | 33.43903 | -112.00902 | 1130 ft | 13 kts | 90° |
| 2026-05-06 02:36 | 33.43902 | -112.00778 | 1133 ft | 17 kts | 90° |
| 2026-05-06 02:36 | 33.43902 | -112.00638 | 1134 ft | 16 kts | 89° |
| 2026-05-06 02:36 | 33.43903 | -112.00501 | 1134 ft | 16 kts | 90° |
| 2026-05-06 02:37 | 33.43902 | -112.00381 | 1134 ft | 13 kts | 90° |
| 2026-05-06 02:37 | 33.43872 | -112.00307 | 1134 ft | 10 kts | 167° |
| 2026-05-06 02:37 | 33.43818 | -112.00304 | 1134 ft | 5 kts | 180° |
| 2026-05-06 02:37 | 33.43784 | -112.00298 | 1134 ft | 4 kts | 153° |
| 2026-05-06 02:38 | 33.43767 | -112.00269 | 1134 ft | 3 kts | 110° |
| 2026-05-06 02:38 | 33.43763 | -112.00246 | 1134 ft | 0 kts | 101° |